Race Results for…
Le Chocolat 2017

May 07, 2017 Results presented by Running Flat and timed by Running Flat
Participants:
2347
Last Updated:
5/12/2017 8:23:08 AM
Stats

Leaderboards

Jump to a Leaderboard

5K

Male - Overall
Bib Name Chip Elapsed Pace City Age
1 1885 JOAQUIM LOURENCO 00:18:57 03:47 min/km HARROW 20
2 1101 DYLAN SEGUIN 00:21:04 04:12 min/km BELLE RIVER 14
3 1895 JON ANDERSON 00:22:37 04:31 min/km OWEN SOUND 49
Female - Overall
Bib Name Chip Elapsed Pace City Age
1 2178 DEANNA KEREKES 00:20:04 04:00 min/km ST. MARYS 21
2 1180 ALEX VORSHUK 00:20:29 04:05 min/km TECUMSEH 28
3 1423 MONIQUE MCKEEN 00:23:02 04:36 min/km LONDON 27

10K

Male - Overall
Bib Name Chip Elapsed Pace City Age
1 3659 MICHAEL GAMBERTA 00:39:24 03:56 min/km TECUMSEH 31
2 3302 IVO OLJACIC 00:40:10 04:01 min/km WINDSOR 51
3 3102 J.C. MAHLER 00:42:30 04:15 min/km WINDSOR 51
Female - Overall
Bib Name Chip Elapsed Pace City Age
1 5064 TARA STEWART 00:39:36 03:57 min/km TORONTO 46
2 5043 SONYA SKILLINGS 00:41:48 04:10 min/km WINDSOR 41
3 1170 SONIA SCHOEBE 00:42:29 04:14 min/km TECUMSEH 47

HALF MARATHON

Male - Overall
Bib Name Chip Elapsed Pace City Age
1 5106 MARK SALISBURY 01:31:23 04:19 min/km HARROW 44
2 5059 RONNIE MARTIN 01:35:31 04:31 min/km WINDSOR 56
3 5491 JEAN-CLAUDE BOULOS 01:37:21 04:36 min/km 35
Female - Overall
Bib Name Chip Elapsed Pace City Age
1 5009 GRACE BAKKER 01:28:12 04:10 min/km LASALLE 35
2 5290 DANICA METCALFE 01:29:10 04:13 min/km HANOVER 32
3 5498 BRIANNA VAN DER MARK 01:32:45 04:23 min/km TORONTO 30

Overall Results

Tip: Slide the results table left and right to view more.
1311 entrants …
5K Results
Bib Name Chip Elapsed Age Division Gender City Gender Place Div Place Age Place Pace Gender Place Div Place Age Place
1885 JOAQUIM LOURENCO 00:18:57 20 5K M HARROW 1 1 1 03:47 min/km 1 1 1
2178 DEANNA KEREKES 00:20:04 21 5K F ST. MARYS 1 2 1 04:00 min/km 1 2 1
1180 ALEX VORSHUK 00:20:29 28 5K F TECUMSEH 2 3 1 04:05 min/km 2 3 1
1101 DYLAN SEGUIN 00:21:04 14 5K M BELLE RIVER 2 4 1 04:12 min/km 2 4 1
1895 JON ANDERSON 00:22:37 49 5K M OWEN SOUND 3 5 1 04:31 min/km 3 5 1
1423 MONIQUE MCKEEN 00:23:02 27 5K F LONDON 3 6 2 04:36 min/km 3 6 2
1852 BILL BERGEN 00:23:09 29 5K M KINGSVILLE 4 7 1 04:37 min/km 4 7 1
1879 ANDREW COLLIER 00:23:23 15 5K M BELLE RIVER 5 8 1 04:40 min/km 5 8 1
1893 JENN THOMM 00:23:33 40 5K F SARNIA 4 9 1 04:42 min/km 4 9 1
1556 COHEN KIRITSIS 00:23:33 12 5K M TECUMSEH 6 10 2 04:42 min/km 6 10 2
1642 AIMEE YOUNG 00:23:54 41 5K F FERGUS 5 11 2 04:46 min/km 5 11 2
1719 ROBIN LINFIELD 00:24:29 47 5K F SOUTH LYON 6 12 1 04:53 min/km 6 12 1
1960 ANDRIA KENNEY 00:24:45 37 5K F NEW DUNDEE 7 13 1 04:57 min/km 7 13 1
1237 JASMINE SAAD 00:24:45 13 5K F TECUMSEH 8 14 1 04:57 min/km 8 14 1
1600 OLIVIA CASCHERA 00:24:51 16 5K F LASALLE 9 15 1 04:58 min/km 9 15 1
1760 JOHN BURKE 00:24:52 27 5K M WINDSOR 7 16 2 04:58 min/km 7 16 2
1553 CHRISTINA PRICE 00:25:09 39 5K F WINDSOR 10 17 2 05:01 min/km 10 17 2
1242 APRIL TURNER 00:25:12 29 5K F WINDSOR 11 18 3 05:02 min/km 11 18 3
1408 EMILY JENNEN 00:25:36 21 5K F THAMESVILLE 12 19 2 05:07 min/km 12 19 2
1795 PIETER WATERS 00:25:42 11 5K M WINDSOR 8 20 3 05:08 min/km 8 20 3
1401 CHARLOTTE FLEMING 00:26:00 20 5K F WINDSOR 13 21 3 05:12 min/km 13 21 3
2296 LESLEE HORNETT 00:26:17 45 5K F MOORETOWN 14 22 2 05:15 min/km 14 22 2
1235 GENEVIEVE SAAD 00:26:20 42 5K F LAKESHORE 15 23 3 05:16 min/km 15 23 3
2007 JARROD JOHNSTON 00:26:31 40 5K M CHATHAM 9 24 1 05:18 min/km 9 24 1
1454 MARISSA DONATELLI 00:26:34 10 5K F LASALLE 16 25 1 05:18 min/km 16 25 1
1541 LISA EDWARDS 00:26:44 30 5K F KINGSVILLE 17 26 1 05:20 min/km 17 26 1
1883 DEB TRIM 00:26:45 33 5K F SARNIA 18 27 2 05:21 min/km 18 27 2
1116 LEEANN WARWICK 00:26:48 39 5K F RR#4 BLENHEIM 19 28 3 05:21 min/km 19 28 3
1681 EMILY LAFORET 00:26:59 29 5K F WINDSOR 20 29 4 05:23 min/km 20 29 4
1117 NATASHA NEWMAN 00:27:05 26 5K F RIDGETOWN 21 30 5 05:25 min/km 21 30 5
1200 BEN SKILLINGS 00:27:13 12 5K M WINDSOR 10 31 4 05:26 min/km 10 31 4
2441 CAROL JOHNSTON 00:27:15 70 5K F FARMINGTON HILLS 22 32 1 05:27 min/km 22 32 1
1430 BRIAN PISANI 00:27:18 37 5K M TECUMSEH 11 33 1 05:27 min/km 11 33 1
2022 AMBER GERARD 00:27:21 24 5K F WINDSOR 23 34 4 05:28 min/km 23 34 4
1304 JOHN ROCHON 00:27:26 54 5K M WINDSOR 12 35 1 05:29 min/km 12 35 1
1644 KERRY MAYRAND 00:27:36 39 5K F WINDSOR 24 36 4 05:31 min/km 24 36 4
1645 CASSIE MAYRAND-BURNEY 00:27:36 43 5K F GROSSE POINTE SHORES 25 37 4 05:31 min/km 25 37 4
2473 JACKIE PEARSON 00:27:38 38 5K F BELLE RIVER 26 38 5 05:31 min/km 26 38 5
1484 MELANIE MAILLOUX 00:27:38 40 5K F TILBURY 27 39 5 05:31 min/km 27 39 5
2444 MACKENZIE TURNER 00:27:42 15 5K M WINDSOR 13 40 2 05:32 min/km 13 40 2
1705 DALE KELLY 00:27:47 15 5K M HARROW 14 41 3 05:33 min/km 14 41 3
1753 MARY-JO WITFOTH 00:27:52 58 5K F SWANTON 28 42 1 05:34 min/km 28 42 1
1297 CHRISTINE LAU 00:27:54 53 5K F AMHERSTBURG 29 43 1 05:34 min/km 29 43 1
1763 KAREN TRIPP 00:27:54 60 5K F LONDON 30 44 1 05:34 min/km 30 44 1
1742 KATE ALLISON 00:27:56 38 5K F SARNIA 31 45 6 05:35 min/km 31 45 6
1226 ABE KLASSEN 00:27:59 41 5K M COTTAM 15 46 2 05:35 min/km 15 46 2
2165 JENNIFER ZMUDA 00:28:13 36 5K F CHATHAM 32 47 7 05:38 min/km 32 47 7
1245 BLAIR CULLEN 00:28:13 20 5K F WINDSOR 33 48 5 05:38 min/km 33 48 5
1447 MELISSA VANBUSKIRK 00:28:23 41 5K F TECUMSEH 34 49 6 05:40 min/km 34 49 6
2085 DREW BOWMAN 00:28:24 22 5K F WHEATLEY 35 50 6 05:40 min/km 35 50 6
1311 entrants …

Winners

Tip: Slide the results table left and right to view more.
Overall
Bib Name Chip Elapsed Age Division Gender City Gender Place Div Place Age Place Pace Gender Place Div Place Age Place
1885 JOAQUIM LOURENCO 00:18:57 20 5K M HARROW 1 1 1 03:47 min/km 1 1 1
2178 DEANNA KEREKES 00:20:04 21 5K F ST. MARYS 1 2 1 04:00 min/km 1 2 1
1 - 10
Bib Name Chip Elapsed Age Division Gender City Gender Place Div Place Age Place Pace Gender Place Div Place Age Place
1455 NICHOLAS DONATELLI 00:29:55 9 5K M LASALLE 26 100 1 05:59 min/km 26 100 1
2060 JOSHUA MOLENDA 00:30:58 9 5K M WINDSOR 32 137 2 06:11 min/km 32 137 2
2442 RICHARD JOHNSTON 00:36:03 1 5K M FARMINGTON HILLS 50 380 3 07:12 min/km 50 380 3
1052 BRENDEN HURAJT 00:54:04 9 5K M WINDSOR 96 1049 4 10:48 min/km 96 1049 4
1501 ERIC SZORVAS 00:54:05 10 5K M WINDSOR 98 1051 5 10:49 min/km 98 1051 5
1454 MARISSA DONATELLI 00:26:34 10 5K F LASALLE 16 25 1 05:18 min/km 16 25 1
1557 ELLA KIRITSIS 00:31:45 10 5K F TECUMSEH 128 163 2 06:21 min/km 128 163 2
2037 CADENCE HURST 00:32:49 10 5K F LASALLE 169 206 3 06:33 min/km 169 206 3
1796 ALIES WATERS 00:37:21 6 5K F WINDSOR 374 426 4 07:28 min/km 374 426 4
1740 TAMMY MEADS 00:38:00 3 5K F LONDON 401 455 5 07:36 min/km 401 455 5
11 - 14
Bib Name Chip Elapsed Age Division Gender City Gender Place Div Place Age Place Pace Gender Place Div Place Age Place
1101 DYLAN SEGUIN 00:21:04 14 5K M BELLE RIVER 2 4 1 04:12 min/km 2 4 1
1556 COHEN KIRITSIS 00:23:33 12 5K M TECUMSEH 6 10 2 04:42 min/km 6 10 2
1795 PIETER WATERS 00:25:42 11 5K M WINDSOR 8 20 3 05:08 min/km 8 20 3
1200 BEN SKILLINGS 00:27:13 12 5K M WINDSOR 10 31 4 05:26 min/km 10 31 4
1475 QUEST MCLAUGHLIN 00:29:02 12 5K M WINDSOR 18 66 5 05:48 min/km 18 66 5
1237 JASMINE SAAD 00:24:45 13 5K F TECUMSEH 8 14 1 04:57 min/km 8 14 1
1465 HANNAH HURST 00:29:18 12 5K F AMHERSTBURG 60 79 2 05:51 min/km 60 79 2
1601 AVA CASCHERA 00:31:40 14 5K F LASALLE 124 159 3 06:20 min/km 124 159 3
2082 BROOKLYNN FOSTER 00:32:29 14 5K F CORUNNA 160 197 4 06:29 min/km 160 197 4
1761 SOPHIA FRANKLIN 00:34:03 11 5K F WINDSOR 230 273 5 06:48 min/km 230 273 5
15 - 19
Bib Name Chip Elapsed Age Division Gender City Gender Place Div Place Age Place Pace Gender Place Div Place Age Place
1879 ANDREW COLLIER 00:23:23 15 5K M BELLE RIVER 5 8 1 04:40 min/km 5 8 1
2444 MACKENZIE TURNER 00:27:42 15 5K M WINDSOR 13 40 2 05:32 min/km 13 40 2
1705 DALE KELLY 00:27:47 15 5K M HARROW 14 41 3 05:33 min/km 14 41 3
1808 KYLE MCDONALD 00:28:59 15 5K M BOWMANVILLE 17 65 4 05:47 min/km 17 65 4
2069 IMANOL LOZANO 00:31:17 15 5K M DETROIT 34 145 5 06:15 min/km 34 145 5
1600 OLIVIA CASCHERA 00:24:51 16 5K F LASALLE 9 15 1 04:58 min/km 9 15 1
1530 AMANDA WARREN 00:30:10 16 5K F CHESTERFIELD 81 109 2 06:02 min/km 81 109 2
1786 JILLIAN DUPON 00:33:06 15 5K F WALLACEBURG 180 217 3 06:37 min/km 180 217 3
1097 CASEY O'HALLORAN 00:35:37 19 5K F AMHERSBURG 307 355 4 07:07 min/km 307 355 4
2445 JANELLE ANGLIN 00:37:24 18 5K F WINDSOR 378 430 5 07:28 min/km 378 430 5
20 - 24
Bib Name Chip Elapsed Age Division Gender City Gender Place Div Place Age Place Pace Gender Place Div Place Age Place
1885 JOAQUIM LOURENCO 00:18:57 20 5K M HARROW 1 1 1 03:47 min/km 1 1 1
1206 EDMUND OLIVIER 00:33:29 20 5K M WINDSOR 39 238 2 06:41 min/km 39 238 2
1387 MAX WIEBE 00:35:54 24 5K M KITCHENER 49 370 3 07:10 min/km 49 370 3
2178 DEANNA KEREKES 00:20:04 21 5K F ST. MARYS 1 2 1 04:00 min/km 1 2 1
1408 EMILY JENNEN 00:25:36 21 5K F THAMESVILLE 12 19 2 05:07 min/km 12 19 2
1401 CHARLOTTE FLEMING 00:26:00 20 5K F WINDSOR 13 21 3 05:12 min/km 13 21 3
2022 AMBER GERARD 00:27:21 24 5K F WINDSOR 23 34 4 05:28 min/km 23 34 4
1245 BLAIR CULLEN 00:28:13 20 5K F WINDSOR 33 48 5 05:38 min/km 33 48 5
25 - 29
Bib Name Chip Elapsed Age Division Gender City Gender Place Div Place Age Place Pace Gender Place Div Place Age Place
1852 BILL BERGEN 00:23:09 29 5K M KINGSVILLE 4 7 1 04:37 min/km 4 7 1
1760 JOHN BURKE 00:24:52 27 5K M WINDSOR 7 16 2 04:58 min/km 7 16 2
2446 TAM VO 00:30:08 26 5K M WINDSOR 28 108 3 06:01 min/km 28 108 3
2302 STEVEN BACON 00:30:24 29 5K M LASALLE 29 118 4 06:04 min/km 29 118 4
1590 MUNGUIKO KABANO 00:31:05 28 5K M WINDSOR 33 139 5 06:13 min/km 33 139 5
1180 ALEX VORSHUK 00:20:29 28 5K F TECUMSEH 2 3 1 04:05 min/km 2 3 1
1423 MONIQUE MCKEEN 00:23:02 27 5K F LONDON 3 6 2 04:36 min/km 3 6 2
1242 APRIL TURNER 00:25:12 29 5K F WINDSOR 11 18 3 05:02 min/km 11 18 3
1681 EMILY LAFORET 00:26:59 29 5K F WINDSOR 20 29 4 05:23 min/km 20 29 4
1117 NATASHA NEWMAN 00:27:05 26 5K F RIDGETOWN 21 30 5 05:25 min/km 21 30 5
30 - 34
Bib Name Chip Elapsed Age Division Gender City Gender Place Div Place Age Place Pace Gender Place Div Place Age Place
1752 PAUL GILMORE 00:29:17 32 5K M OTTERVILLE 19 77 1 05:51 min/km 19 77 1
1928 CODY FOSTER 00:29:46 30 5K M STRATHROY 24 96 2 05:57 min/km 24 96 2
1864 FRANCO SAVO 00:34:48 31 5K M SARNIA 45 308 3 06:57 min/km 45 308 3
1908 JEREMY COULTER 00:35:31 30 5K M WINDSOR 47 350 4 07:06 min/km 47 350 4
1255 ILLYA HUDSON 00:59:26 32 5K M WINDSOR 109 1228 5 11:53 min/km 109 1228 5
1541 LISA EDWARDS 00:26:44 30 5K F KINGSVILLE 17 26 1 05:20 min/km 17 26 1
1883 DEB TRIM 00:26:45 33 5K F SARNIA 18 27 2 05:21 min/km 18 27 2
1612 FATIN RAFOJAN 00:29:08 32 5K F AMHERSTBURG 52 70 3 05:49 min/km 52 70 3
2492 YVONNE PILON 00:29:16 32 5K F 57 75 4 05:51 min/km 57 75 4
1665 OLIGA TSERAKHAVA 00:29:20 34 5K F WINDSOR 66 86 5 05:52 min/km 66 86 5
35 - 39
Bib Name Chip Elapsed Age Division Gender City Gender Place Div Place Age Place Pace Gender Place Div Place Age Place
1430 BRIAN PISANI 00:27:18 37 5K M TECUMSEH 11 33 1 05:27 min/km 11 33 1
1083 MITCHEL WILLIAMS 00:29:21 37 5K M AMHERSTBURG 21 89 2 05:52 min/km 21 89 2
1539 THOMAS MANNING 00:30:36 39 5K M WOODSTOCK 31 128 3 06:07 min/km 31 128 3
1865 ANTHONY FAZIO 00:34:49 39 5K M SARNIA 46 309 4 06:57 min/km 46 309 4
1956 JOSE SUNSIN 00:50:08 36 5K M WINDSOR 79 894 5 10:01 min/km 79 894 5
1960 ANDRIA KENNEY 00:24:45 37 5K F NEW DUNDEE 7 13 1 04:57 min/km 7 13 1
1553 CHRISTINA PRICE 00:25:09 39 5K F WINDSOR 10 17 2 05:01 min/km 10 17 2
1116 LEEANN WARWICK 00:26:48 39 5K F RR#4 BLENHEIM 19 28 3 05:21 min/km 19 28 3
1644 KERRY MAYRAND 00:27:36 39 5K F WINDSOR 24 36 4 05:31 min/km 24 36 4
2473 JACKIE PEARSON 00:27:38 38 5K F BELLE RIVER 26 38 5 05:31 min/km 26 38 5
40 - 44
Bib Name Chip Elapsed Age Division Gender City Gender Place Div Place Age Place Pace Gender Place Div Place Age Place
2007 JARROD JOHNSTON 00:26:31 40 5K M CHATHAM 9 24 1 05:18 min/km 9 24 1
1226 ABE KLASSEN 00:27:59 41 5K M COTTAM 15 46 2 05:35 min/km 15 46 2
2097 PATRICK MONFORTON 00:30:29 44 5K M AMHERSTBURG 30 125 3 06:05 min/km 30 125 3
1483 SHAWN MCKINLAY 00:33:21 41 5K M TILBURY 38 225 4 06:40 min/km 38 225 4
1554 CHRIS KIRITSIS 00:33:32 42 5K M TECUMSEH 40 240 5 06:42 min/km 40 240 5
1893 JENN THOMM 00:23:33 40 5K F SARNIA 4 9 1 04:42 min/km 4 9 1
1642 AIMEE YOUNG 00:23:54 41 5K F FERGUS 5 11 2 04:46 min/km 5 11 2
1235 GENEVIEVE SAAD 00:26:20 42 5K F LAKESHORE 15 23 3 05:16 min/km 15 23 3
1645 CASSIE MAYRAND-BURNEY 00:27:36 43 5K F GROSSE POINTE SHORES 25 37 4 05:31 min/km 25 37 4
1484 MELANIE MAILLOUX 00:27:38 40 5K F TILBURY 27 39 5 05:31 min/km 27 39 5
45 - 49
Bib Name Chip Elapsed Age Division Gender City Gender Place Div Place Age Place Pace Gender Place Div Place Age Place
1895 JON ANDERSON 00:22:37 49 5K M OWEN SOUND 3 5 1 04:31 min/km 3 5 1
2180 VIRGILIO COSTA 00:29:33 49 5K M WINDSOR 22 91 2 05:54 min/km 22 91 2
1909 DON MORENCY 00:30:03 45 5K M WYOMING 27 105 3 06:00 min/km 27 105 3
2300 JOE BOSLEY 00:33:38 45 5K M AMHERSTBURG 42 245 4 06:43 min/km 42 245 4
2024 MIKE LEARN 00:38:20 47 5K M WINDSOR 55 472 5 07:40 min/km 55 472 5
1719 ROBIN LINFIELD 00:24:29 47 5K F SOUTH LYON 6 12 1 04:53 min/km 6 12 1
2296 LESLEE HORNETT 00:26:17 45 5K F MOORETOWN 14 22 2 05:15 min/km 14 22 2
2269 SABRINA GRAZIANO 00:28:29 47 5K F BELLE RIVER 37 52 3 05:41 min/km 37 52 3
1676 CHARLOTTE SCOLLON-MOREL 00:28:47 46 5K F LASALLE 42 58 4 05:45 min/km 42 58 4
2122 TERRI BANFILL 00:29:15 46 5K F WINDSOR 56 74 5 05:51 min/km 56 74 5
50 - 54
Bib Name Chip Elapsed Age Division Gender City Gender Place Div Place Age Place Pace Gender Place Div Place Age Place
1304 JOHN ROCHON 00:27:26 54 5K M WINDSOR 12 35 1 05:29 min/km 12 35 1
1305 IAN BAWDAN 00:29:19 54 5K M WOODSLEE 20 83 2 05:51 min/km 20 83 2
1522 THOMAS CAPONI 00:29:41 53 5K M RAY 23 93 3 05:56 min/km 23 93 3
1940 BILL EVON 00:29:54 52 5K M LASALLE 25 99 4 05:58 min/km 25 99 4
2271 DAVID LOSEK 00:31:24 53 5K M BROWNSTOWN 35 148 5 06:16 min/km 35 148 5
1297 CHRISTINE LAU 00:27:54 53 5K F AMHERSTBURG 29 43 1 05:34 min/km 29 43 1
1618 MARINA DESLIPPE 00:28:56 51 5K F TECUMSEH 46 62 2 05:47 min/km 46 62 2
2149 EVELYN DALEY 00:29:14 54 5K F INGERSOLL 55 73 3 05:50 min/km 55 73 3
1127 IRENE IMPENS 00:29:19 51 5K F LEAMINGTON 62 81 4 05:51 min/km 62 81 4
1444 JULIE DE MEYER 00:29:23 51 5K F CHATHAM 69 90 5 05:52 min/km 69 90 5
55 - 59
Bib Name Chip Elapsed Age Division Gender City Gender Place Div Place Age Place Pace Gender Place Div Place Age Place
1231 DAVE STEEN 00:28:39 57 5K M BELLE RIVER 16 57 1 05:43 min/km 16 57 1
1296 DARRELL BALDOCK 00:33:38 56 5K M TILBURY 41 243 2 06:43 min/km 41 243 2
1153 PAUL HENSHAW 00:44:02 55 5K M WINDSOR 68 685 3 08:48 min/km 68 685 3
1526 TOM MCCALL 00:47:57 57 5K M WINDSOR 75 801 4 09:35 min/km 75 801 4
1336 BRAD BOUFFORD 00:48:07 59 5K M LONDON 76 808 5 09:37 min/km 76 808 5
1753 MARY-JO WITFOTH 00:27:52 58 5K F SWANTON 28 42 1 05:34 min/km 28 42 1
2316 CATHY FOSTER 00:28:52 56 5K F KERWOOD 45 61 2 05:46 min/km 45 61 2
1905 DONNA BURKHART 00:28:56 58 5K F PARIS 47 63 3 05:47 min/km 47 63 3
1012 ROBIN KISSNER 00:30:27 55 5K F KINGSVILLE 93 122 4 06:05 min/km 93 122 4
1614 ROSE MELO 00:31:11 56 5K F AMHERSTBURG ONT 109 142 5 06:14 min/km 109 142 5
60 - 64
Bib Name Chip Elapsed Age Division Gender City Gender Place Div Place Age Place Pace Gender Place Div Place Age Place
2372 DANTE MORASSUTTI 00:37:27 60 5K M TECUMSEH 53 432 1 07:29 min/km 53 432 1
1581 JEFF CORYELL 00:40:26 60 5K M DETROIT 63 551 2 08:05 min/km 63 551 2
2257 DOUG WICKS 00:44:08 63 5K M KETTLE & STONEY POINT FN 69 691 3 08:49 min/km 69 691 3
1771 CLIFTON WEBSTER 00:52:46 61 5K M LONDON 89 996 4 10:33 min/km 89 996 4
2453 MARK FAORO 00:53:18 64 5K M MACOMB 93 1021 5 10:39 min/km 93 1021 5
1763 KAREN TRIPP 00:27:54 60 5K F LONDON 30 44 1 05:34 min/km 30 44 1
1230 ANDREA STEEN 00:28:36 60 5K F BELLE RIVER 39 54 2 05:43 min/km 39 54 2
1438 GAYLE DALE 00:33:37 60 5K F TECUMSEH 202 242 3 06:43 min/km 202 242 3
1122 SHARY LAST 00:35:11 61 5K F KINGSVILLE 289 335 4 07:02 min/km 289 335 4
2229 DEBRA CURTIS 00:35:27 60 5K F GREENVILLE 298 344 5 07:05 min/km 298 344 5
65 - 69
Bib Name Chip Elapsed Age Division Gender City Gender Place Div Place Age Place Pace Gender Place Div Place Age Place
1010 GARY FLINSENBERG 00:35:35 69 5K M WOODSTOCK 48 354 1 07:07 min/km 48 354 1
2062 JAKE MARTENS 00:38:48 67 5K M RUTHVEN 58 491 2 07:45 min/km 58 491 2
1638 GRANT HALL 00:42:33 65 5K M TECUMSEH 65 617 3 08:30 min/km 65 617 3
1912 BILL KELLEY 00:53:32 66 5K M CHELSEA 94 1031 4 10:42 min/km 94 1031 4
1985 MICHAEL HAMLIN (SR.)1947 00:56:03 69 5K M HARROW 104 1136 5 11:12 min/km 104 1136 5
1777 VIKKI HILL 00:31:41 65 5K F ALGONAC 126 161 1 06:20 min/km 126 161 1
1784 KATHLEEN GIANNOSA 00:34:10 67 5K F ANN ARBOR 237 280 2 06:50 min/km 237 280 2
1426 RUTH JACKSON 00:35:16 65 5K F TILBURY 291 337 3 07:03 min/km 291 337 3
2486 FAYE REDFEARN 00:36:49 65 5K F WINDSOR 352 403 4 07:21 min/km 352 403 4
1188 BEV JONES 00:38:15 66 5K F AMHERSTBURG 415 469 5 07:39 min/km 415 469 5
70 - 74
Bib Name Chip Elapsed Age Division Gender City Gender Place Div Place Age Place Pace Gender Place Div Place Age Place
1966 JAMES ADKIN 01:11:32 74 5K M WINDSOR 115 1303 1 14:18 min/km 115 1303 1
2441 CAROL JOHNSTON 00:27:15 70 5K F FARMINGTON HILLS 22 32 1 05:27 min/km 22 32 1
2019 LESLEY JANE MERCHANT 00:49:53 70 5K F BELLE RIVER 805 883 2 09:58 min/km 805 883 2
2203 MARY LYNN ZAPPACOSTA 00:53:28 71 5K F WINDSOR 933 1026 3 10:41 min/km 933 1026 3
1789 SHIRLEY PETCH 00:58:11 72 5K F CHATHAM 1096 1204 4 11:38 min/km 1096 1204 4
1714 PATRICIA LYLE 01:11:20 73 5K F DEARBORN HEIGHTS 1186 1302 5 14:16 min/km 1186 1302 5
75 - 79
Bib Name Chip Elapsed Age Division Gender City Gender Place Div Place Age Place Pace Gender Place Div Place Age Place
80 - 84
Bib Name Chip Elapsed Age Division Gender City Gender Place Div Place Age Place Pace Gender Place Div Place Age Place
1726 JEAN SNOW 01:08:37 80 5K F WINDSOR 1180 1294 1 13:43 min/km 1180 1294 1
85 - 89
Bib Name Chip Elapsed Age Division Gender City Gender Place Div Place Age Place Pace Gender Place Div Place Age Place
90 - 94
Bib Name Chip Elapsed Age Division Gender City Gender Place Div Place Age Place Pace Gender Place Div Place Age Place
95 - 99
Bib Name Chip Elapsed Age Division Gender City Gender Place Div Place Age Place Pace Gender Place Div Place Age Place
100 - 104
Bib Name Chip Elapsed Age Division Gender City Gender Place Div Place Age Place Pace Gender Place Div Place Age Place

Race Info

Participants:
2347
Last Updated:
5/12/2017 8:23:08 AM
Tip: Slide the results table left and right to view more.

Search for Name, Bib, City, State or Team
in the field above… by clicking the icon below…

Race Statistics

NODIVISION - 18


Male
Total Finishers Avg Pace
3 00:00

Female
Total Finishers Avg Pace
15 00:00

5K - 1311


Male
Total Finishers Avg Pace
118 08:22

Female
Total Finishers Avg Pace
1193 08:52

10K - 681


Male
Total Finishers Avg Pace
83 06:52

Female
Total Finishers Avg Pace
598 07:38

HALF MARATHON - 307


Male
Total Finishers Avg Pace
42 05:58

Female
Total Finishers Avg Pace
265 06:46
This event was timed using RM Timing Systems
Take control of your event

Have a question or need to make a correction?

Submit a Result Correction